Time;durP1;ratioP1;P1;durP2;ratioP2;P2;SDS_P1;SDS_P2;PMS_P1;PMS_P2;Temp;Humidity;BMP_temperature;BMP_pressure;BME280_temperature;BME280_humidity;BME280_pressure;Samples;Min_cycle;Max_cycle;Signal;HPM_P1;HPM_P2
2023/03/17 00:03:44;;;;;;;7.30;2.83;;;6.10;99.90;;;;;;15406207;23;20039;-78
2023/03/17 00:09:46;;;;;;;4.32;2.50;;;6.10;99.90;;;;;;15399721;23;20124;-78
2023/03/17 00:15:54;;;;;;;4.60;2.25;;;6.20;99.90;;;;;;15397974;23;20028;-79
2023/03/17 00:21:57;;;;;;;3.97;2.55;;;6.30;99.90;;;;;;15400411;23;20020;-77
2023/03/17 00:28:02;;;;;;;4.60;2.22;;;6.20;99.90;;;;;;15411712;23;20025;-77
2023/03/17 00:34:04;;;;;;;4.78;2.60;;;6.10;99.90;;;;;;15412630;23;20020;-78
2023/03/17 00:40:31;;;;;;;6.18;2.65;;;6.10;99.90;;;;;;15430255;23;20044;-77
2023/03/17 00:46:34;;;;;;;4.80;2.85;;;6.00;99.90;;;;;;15355076;23;20044;-77
2023/03/17 00:52:37;;;;;;;4.00;2.35;;;6.00;99.90;;;;;;15410637;23;20082;-78
2023/03/17 00:58:39;;;;;;;5.03;2.70;;;6.00;99.90;;;;;;15410844;23;20062;-78
2023/03/17 01:04:44;;;;;;;4.88;2.50;;;6.00;99.90;;;;;;15424280;23;20036;-78
2023/03/17 01:10:56;;;;;;;6.22;2.60;;;6.00;99.90;;;;;;15413334;23;20025;-78
2023/03/17 01:16:58;;;;;;;4.35;2.70;;;6.10;99.90;;;;;;15435759;23;20047;-78
2023/03/17 01:23:01;;;;;;;5.68;2.80;;;6.10;99.90;;;;;;15467054;22;20023;-78
2023/03/17 01:29:05;;;;;;;3.85;2.25;;;6.10;99.90;;;;;;15504550;23;20032;-78
2023/03/17 01:35:07;;;;;;;5.15;2.50;;;6.10;99.90;;;;;;15492038;22;20514;-78
2023/03/17 01:41:09;;;;;;;7.53;2.88;;;6.20;99.90;;;;;;15491738;22;20377;-78
2023/03/17 01:47:11;;;;;;;4.90;2.80;;;6.20;99.90;;;;;;15484130;22;20528;-78
2023/03/17 01:53:15;;;;;;;4.50;2.40;;;6.20;99.90;;;;;;15476538;23;20049;-78
2023/03/17 01:59:22;;;;;;;5.15;2.35;;;6.10;99.90;;;;;;15477974;23;20071;-78
2023/03/17 02:05:27;;;;;;;6.97;2.53;;;6.00;99.90;;;;;;15472933;23;20021;-79
2023/03/17 02:11:29;;;;;;;;;;;5.90;99.90;;;;;;15487690;22;20028;-78
2023/03/17 02:17:31;;;;;;;4.60;2.65;;;5.90;99.90;;;;;;15477503;23;20037;-79
2023/03/17 02:23:33;;;;;;;3.92;2.47;;;6.00;99.90;;;;;;15479539;22;20283;-79
2023/03/17 02:29:36;;;;;;;5.25;2.75;;;5.90;99.90;;;;;;15501199;22;20027;-79
2023/03/17 02:35:39;;;;;;;4.68;2.55;;;5.90;99.90;;;;;;15502022;23;20462;-78
2023/03/17 02:41:41;;;;;;;5.18;2.60;;;6.00;99.90;;;;;;15507923;22;20102;-78
2023/03/17 02:47:43;;;;;;;4.15;2.67;;;5.80;99.90;;;;;;15504203;23;20032;-79
2023/03/17 02:53:45;;;;;;;5.78;2.92;;;5.60;99.90;;;;;;15502911;22;20094;-78
2023/03/17 02:59:47;;;;;;;5.47;2.83;;;5.70;99.90;;;;;;15503052;23;20493;-78
2023/03/17 03:05:49;;;;;;;9.30;3.20;;;5.80;99.90;;;;;;15504608;22;20028;-80
2023/03/17 03:11:51;;;;;;;4.47;2.58;;;5.70;99.90;;;;;;15502184;22;20020;-78
2023/03/17 03:17:53;;;;;;;4.97;2.83;;;5.90;99.90;;;;;;15508002;23;20103;-78
2023/03/17 03:23:55;;;;;;;5.63;2.95;;;6.10;99.90;;;;;;15438541;23;20070;-78
2023/03/17 03:29:57;;;;;;;5.15;2.92;;;6.20;99.90;;;;;;15430718;23;20016;-79
2023/03/17 03:35:59;;;;;;;7.55;3.15;;;6.20;99.90;;;;;;15425435;23;20048;-78
2023/03/17 03:42:01;;;;;;;6.70;2.85;;;6.20;99.90;;;;;;15402925;23;20028;-78
2023/03/17 03:48:03;;;;;;;6.32;2.80;;;6.30;99.90;;;;;;15402780;23;20447;-79
2023/03/17 03:54:05;;;;;;;5.55;2.85;;;6.20;99.90;;;;;;15427896;23;20055;-78
2023/03/17 04:00:08;;;;;;;6.93;2.80;;;6.10;99.90;;;;;;15425933;23;20449;-78
2023/03/17 04:06:10;;;;;;;4.50;2.60;;;6.20;99.90;;;;;;15339748;23;20048;-78
2023/03/17 04:12:11;;;;;;;5.95;2.85;;;6.00;99.90;;;;;;15428101;23;20570;-79
2023/03/17 04:18:13;;;;;;;5.82;2.67;;;5.70;99.90;;;;;;15400619;23;20095;-79
2023/03/17 04:24:15;;;;;;;4.03;2.47;;;5.50;99.90;;;;;;15487608;22;20082;-78
2023/03/17 04:30:22;;;;;;;4.82;2.50;;;5.40;99.90;;;;;;15496339;23;20031;-78
2023/03/17 04:36:24;;;;;;;5.57;2.95;;;5.30;99.90;;;;;;15504863;22;20098;-79
2023/03/17 04:42:26;;;;;;;4.82;3.08;;;5.40;99.90;;;;;;15504782;22;20374;-78
2023/03/17 04:48:28;;;;;;;9.23;3.33;;;5.70;99.90;;;;;;15500147;23;20391;-78
2023/03/17 04:54:30;;;;;;;7.68;2.85;;;5.70;99.90;;;;;;15498703;23;20157;-78
2023/03/17 05:00:37;;;;;;;6.53;3.22;;;5.60;99.90;;;;;;15503962;22;20067;-78
2023/03/17 05:06:39;;;;;;;8.57;3.30;;;5.50;99.90;;;;;;15489097;23;20024;-79
2023/03/17 05:12:46;;;;;;;6.40;3.13;;;5.60;99.90;;;;;;15504726;23;20520;-79
2023/03/17 05:18:48;;;;;;;5.85;3.30;;;5.60;99.90;;;;;;15499760;23;20075;-78
2023/03/17 05:24:50;;;;;;;5.20;3.22;;;5.60;99.90;;;;;;15390111;23;20107;-78
2023/03/17 05:30:53;;;;;;;5.90;3.10;;;5.60;99.90;;;;;;15426542;23;20028;-78
2023/03/17 05:36:54;;;;;;;4.57;2.80;;;5.50;99.90;;;;;;15432351;23;20017;-79
2023/03/17 05:42:57;;;;;;;4.85;2.95;;;5.70;99.90;;;;;;15428139;23;20016;-78
2023/03/17 05:48:59;;;;;;;5.78;3.33;;;5.80;99.90;;;;;;15432017;23;20443;-77
2023/03/17 05:55:01;;;;;;;5.68;2.97;;;5.70;99.90;;;;;;15428308;23;20021;-77
2023/03/17 06:01:04;;;;;;;5.75;3.33;;;5.80;99.90;;;;;;15431137;23;20095;-77
2023/03/17 06:07:08;;;;;;;5.15;3.15;;;5.80;99.90;;;;;;15408768;23;20115;-79
2023/03/17 06:13:10;;;;;;;6.55;3.60;;;5.90;99.90;;;;;;15407743;23;20466;-78
2023/03/17 06:19:12;;;;;;;8.57;3.45;;;5.90;99.90;;;;;;15405048;23;20091;-78
2023/03/17 06:25:14;;;;;;;5.50;2.88;;;6.00;99.90;;;;;;15402505;23;20120;-79
2023/03/17 06:31:16;;;;;;;5.00;3.13;;;6.20;99.90;;;;;;15435795;23;20103;-78
2023/03/17 06:37:20;;;;;;;9.65;3.00;;;6.30;99.90;;;;;;15399866;23;20021;-78
2023/03/17 06:43:23;;;;;;;5.43;3.10;;;6.50;99.90;;;;;;15431759;23;20102;-79
2023/03/17 06:49:25;;;;;;;6.77;3.13;;;6.60;99.90;;;;;;15428832;23;20044;-77
2023/03/17 06:55:27;;;;;;;5.55;3.50;;;6.70;99.90;;;;;;15405278;23;20017;-78
2023/03/17 07:01:31;;;;;;;7.38;3.10;;;6.90;99.90;;;;;;15406089;23;20023;-78
2023/03/17 07:07:34;;;;;;;5.32;3.17;;;6.90;99.90;;;;;;15431626;23;20025;-78
2023/03/17 07:13:44;;;;;;;6.30;3.63;;;6.80;99.90;;;;;;15396917;23;20021;-77
2023/03/17 07:19:46;;;;;;;5.10;2.92;;;7.10;99.90;;;;;;15427392;23;20024;-77
2023/03/17 07:25:48;;;;;;;6.88;3.13;;;7.30;99.90;;;;;;15427976;23;20026;-78
2023/03/17 07:31:50;;;;;;;4.93;3.00;;;7.30;99.90;;;;;;15426709;23;20055;-78
2023/03/17 07:37:52;;;;;;;6.00;3.17;;;7.30;99.90;;;;;;15429213;23;20021;-78
2023/03/17 07:43:55;;;;;;;5.00;3.20;;;7.50;99.90;;;;;;15404796;23;20029;-78
2023/03/17 07:49:56;;;;;;;5.53;3.03;;;7.70;99.90;;;;;;15399732;23;20024;-79
2023/03/17 07:56:00;;;;;;;6.32;3.13;;;7.90;99.90;;;;;;15402511;23;20147;-78
2023/03/17 08:02:06;;;;;;;5.97;3.10;;;8.00;99.90;;;;;;15401231;23;20629;-78
2023/03/17 08:08:09;;;;;;;9.52;3.40;;;8.20;99.90;;;;;;15397695;23;20077;-78
2023/03/17 08:14:12;;;;;;;4.50;2.70;;;8.60;99.90;;;;;;15427402;23;20351;-78
2023/03/17 08:20:14;;;;;;;6.13;3.17;;;9.10;99.90;;;;;;15426184;23;20028;-78
2023/03/17 08:26:17;;;;;;;4.53;2.63;;;9.10;99.90;;;;;;15428036;23;20021;-79
2023/03/17 08:32:21;;;;;;;5.40;2.92;;;9.10;99.90;;;;;;15405636;23;20056;-79
2023/03/17 08:38:23;;;;;;;5.90;2.90;;;9.20;99.90;;;;;;15428476;23;20067;-78
2023/03/17 08:44:25;;;;;;;4.20;2.50;;;9.20;99.90;;;;;;15400713;23;20577;-78
2023/03/17 08:50:28;;;;;;;4.68;2.60;;;9.50;99.90;;;;;;15406177;23;20020;-78
2023/03/17 08:56:30;;;;;;;5.43;2.80;;;9.60;99.90;;;;;;15434224;23;20380;-78
2023/03/17 09:02:32;;;;;;;8.20;2.80;;;9.80;99.90;;;;;;15406500;23;20095;-78
2023/03/17 09:08:38;;;;;;;7.30;3.28;;;9.80;99.90;;;;;;15405078;23;20080;-77
2023/03/17 09:14:40;;;;;;;6.13;3.15;;;10.00;99.90;;;;;;15403783;23;20056;-78
2023/03/17 09:20:45;;;;;;;4.82;2.80;;;10.00;99.90;;;;;;15399377;23;20085;-78
2023/03/17 09:26:47;;;;;;;6.82;2.80;;;10.10;99.90;;;;;;15404973;23;20103;-79
2023/03/17 09:32:49;;;;;;;6.85;3.05;;;10.20;99.90;;;;;;15400949;23;20021;-79
2023/03/17 09:38:51;;;;;;;4.70;2.60;;;10.20;99.90;;;;;;15398494;23;20023;-78
2023/03/17 09:45:02;;;;;;;6.30;3.10;;;10.30;99.90;;;;;;15404011;23;20332;-79
2023/03/17 09:51:11;;;;;;;4.82;2.67;;;10.80;99.90;;;;;;15401538;23;20102;-79
2023/03/17 09:57:17;;;;;;;8.30;3.00;;;10.90;99.90;;;;;;15402313;23;20063;-78
2023/03/17 10:03:19;;;;;;;5.88;2.70;;;11.10;99.90;;;;;;15400420;23;20068;-78
2023/03/17 10:09:30;;;;;;;5.32;3.03;;;11.40;99.90;;;;;;15423340;23;20021;-78
2023/03/17 10:15:40;;;;;;;6.03;2.90;;;11.80;99.90;;;;;;15427331;23;20500;-79
2023/03/17 10:21:52;;;;;;;7.13;3.17;;;11.90;99.90;;;;;;15392687;23;20040;-78
2023/03/17 10:28:11;;;;;;;4.93;3.13;;;12.20;99.90;;;;;;15400486;23;20024;-79
2023/03/17 10:34:14;;;;;;;4.82;2.80;;;12.50;99.90;;;;;;15403292;23;20704;-79
2023/03/17 10:40:29;;;;;;;7.45;2.45;;;12.80;99.90;;;;;;15397439;23;20017;-78
2023/03/17 10:46:32;;;;;;;5.30;2.67;;;13.00;99.90;;;;;;15430275;23;20024;-79
2023/03/17 10:52:39;;;;;;;4.57;2.55;;;13.20;99.90;;;;;;15426776;23;20395;-79
2023/03/17 10:58:50;;;;;;;4.93;2.60;;;13.30;99.90;;;;;;15399385;23;20027;-78
2023/03/17 11:05:22;;;;;;;7.30;2.65;;;13.50;99.90;;;;;;15427340;23;20027;-78
2023/03/17 11:11:29;;;;;;;5.63;2.75;;;13.80;99.90;;;;;;15397245;23;20485;-79
2023/03/17 11:17:41;;;;;;;4.90;2.63;;;13.70;99.90;;;;;;15397463;23;20102;-78
2023/03/17 11:23:46;;;;;;;6.35;2.45;;;13.80;99.90;;;;;;15456837;22;20020;-78
2023/03/17 11:30:10;;;;;;;6.10;2.47;;;14.20;99.90;;;;;;15503197;23;20107;-78
2023/03/17 11:36:35;;;;;;;3.80;2.08;;;14.60;99.90;;;;;;15495857;22;20058;-78
2023/03/17 11:43:02;;;;;;;3.85;2.00;;;14.70;99.90;;;;;;15505202;23;20099;-78
2023/03/17 11:49:26;;;;;;;6.13;1.70;;;14.90;99.90;;;;;;15504114;23;20048;-78
2023/03/17 11:55:40;;;;;;;3.87;1.80;;;15.00;99.90;;;;;;15501226;23;20086;-77
2023/03/17 12:02:16;;;;;;;3.85;1.98;;;15.10;99.90;;;;;;15506619;23;20023;-78
2023/03/17 12:08:49;;;;;;;6.90;2.28;;;15.50;99.90;;;;;;15508056;22;20054;-78
2023/03/17 12:14:53;;;;;;;4.80;2.00;;;15.80;99.90;;;;;;15502573;23;20074;-78
2023/03/17 12:21:22;;;;;;;5.93;2.17;;;15.80;99.90;;;;;;15473641;22;20350;-78
2023/03/17 12:27:58;;;;;;;4.45;2.22;;;15.90;99.90;;;;;;15429654;23;20019;-79
2023/03/17 12:34:15;;;;;;;4.88;1.90;;;15.90;99.90;;;;;;15401061;23;20071;-78
2023/03/17 12:40:34;;;;;;;4.40;1.92;;;15.80;99.90;;;;;;15440181;23;20021;-78
2023/03/17 12:47:11;;;;;;;4.28;2.15;;;15.70;99.90;;;;;;15423730;23;20017;-78
2023/03/17 12:53:29;;;;;;;4.35;1.85;;;15.70;99.90;;;;;;15407171;22;20013;-79
2023/03/17 12:59:32;;;;;;;6.03;1.90;;;16.00;99.90;;;;;;15468637;22;20082;-79
2023/03/17 13:05:36;;;;;;;4.38;1.85;;;16.60;99.90;;;;;;15488007;22;20039;-79
2023/03/17 13:11:41;;;;;;;4.07;1.93;;;16.70;99.90;;;;;;15460185;23;20095;-79
2023/03/17 13:17:43;;;;;;;5.65;1.70;;;16.70;99.90;;;;;;15451273;23;20024;-79
2023/03/17 13:23:52;;;;;;;2.92;1.45;;;16.50;99.90;;;;;;15473326;22;20107;-79
2023/03/17 13:29:54;;;;;;;4.95;1.85;;;16.60;99.90;;;;;;15504121;23;20406;-79
2023/03/17 13:36:04;;;;;;;4.72;1.73;;;16.40;99.90;;;;;;15510739;22;20103;-78
2023/03/17 13:42:34;;;;;;;4.45;1.90;;;16.20;99.90;;;;;;15504020;23;20031;-78
2023/03/17 13:48:39;;;;;;;4.30;2.00;;;16.10;99.90;;;;;;15511419;23;20024;-79
2023/03/17 13:54:59;;;;;;;;;;;16.30;99.90;;;;;;15501097;23;20062;-78
2023/03/17 14:01:11;;;;;;;3.72;1.80;;;16.40;99.90;;;;;;15499264;23;19915;-78
2023/03/17 14:07:17;;;;;;;12.02;3.10;;;16.30;99.90;;;;;;15498459;23;20099;-78
2023/03/17 14:13:23;;;;;;;4.18;2.10;;;16.20;99.90;;;;;;15506534;23;20052;-79
2023/03/17 14:19:27;;;;;;;4.78;2.05;;;16.10;99.90;;;;;;15491236;22;20079;-78
2023/03/17 14:25:34;;;;;;;4.35;2.13;;;16.10;99.90;;;;;;15396407;23;20021;-79
2023/03/17 14:31:37;;;;;;;5.47;2.10;;;15.70;99.90;;;;;;15397988;23;20020;-79
2023/03/17 14:37:39;;;;;;;4.82;2.17;;;15.50;99.90;;;;;;15429637;23;20025;-79
2023/03/17 14:43:51;;;;;;;4.20;2.08;;;15.50;99.90;;;;;;15427839;23;20383;-78
2023/03/17 14:49:53;;;;;;;5.03;1.85;;;15.30;99.90;;;;;;15429817;23;20055;-78
2023/03/17 14:55:56;;;;;;;3.83;2.38;;;15.20;99.90;;;;;;15426892;23;20091;-79
2023/03/17 15:02:15;;;;;;;3.90;1.70;;;15.10;99.90;;;;;;15401338;23;20059;-79
2023/03/17 15:08:40;;;;;;;4.88;2.22;;;14.90;99.90;;;;;;15399881;23;20172;-79
2023/03/17 15:14:44;;;;;;;7.38;2.00;;;14.70;99.90;;;;;;15395977;23;20354;-78
2023/03/17 15:20:46;;;;;;;4.07;1.80;;;14.70;99.90;;;;;;15398821;23;20024;-78
2023/03/17 15:26:48;;;;;;;4.53;1.77;;;14.50;99.90;;;;;;15389956;23;20358;-79
2023/03/17 15:32:59;;;;;;;3.83;1.70;;;14.40;99.90;;;;;;15405138;23;20028;-78
2023/03/17 15:39:02;;;;;;;4.00;2.00;;;14.20;99.90;;;;;;15401875;23;20052;-78
2023/03/17 15:45:05;;;;;;;5.53;1.80;;;14.10;99.90;;;;;;15400567;23;20100;-79
2023/03/17 15:51:09;;;;;;;5.25;1.73;;;14.00;99.90;;;;;;15399181;23;20028;-79
2023/03/17 15:57:12;;;;;;;;;;;14.00;99.90;;;;;;15397977;23;20027;-79
2023/03/17 16:03:32;;;;;;;3.70;1.40;;;14.00;99.90;;;;;;15402349;23;19916;-79
2023/03/17 16:09:34;;;;;;;4.53;1.63;;;13.90;99.90;;;;;;15423238;23;20023;-78
2023/03/17 16:15:39;;;;;;;5.90;1.85;;;13.80;99.90;;;;;;15421103;23;20052;-78
2023/03/17 16:21:42;;;;;;;6.38;1.60;;;13.80;99.90;;;;;;15423794;23;20021;-78
2023/03/17 16:27:44;;;;;;;4.57;1.48;;;13.70;99.90;;;;;;15393327;23;20021;-78
2023/03/17 16:33:49;;;;;;;6.38;1.70;;;13.60;99.90;;;;;;15400467;23;20025;-79
2023/03/17 16:39:51;;;;;;;5.32;1.58;;;13.50;99.90;;;;;;15401167;23;20095;-79
2023/03/17 16:45:56;;;;;;;3.42;1.60;;;13.30;99.90;;;;;;15396245;23;20354;-78
2023/03/17 16:51:59;;;;;;;5.50;1.75;;;13.20;99.90;;;;;;15399716;23;20023;-78
2023/03/17 16:58:23;;;;;;;4.20;1.50;;;13.20;99.90;;;;;;15427481;23;20084;-78
2023/03/17 17:04:25;;;;;;;3.27;1.37;;;13.10;99.90;;;;;;15427350;23;20335;-78
2023/03/17 17:10:29;;;;;;;3.88;1.70;;;13.00;99.90;;;;;;15400732;23;20027;-78
2023/03/17 17:16:38;;;;;;;4.78;1.88;;;12.90;99.90;;;;;;15396005;23;20099;-78
2023/03/17 17:22:40;;;;;;;3.42;1.60;;;12.90;99.90;;;;;;15427475;23;20526;-78
2023/03/17 17:28:43;;;;;;;6.82;1.88;;;12.80;99.90;;;;;;15406539;23;20502;-78
2023/03/17 17:34:45;;;;;;;3.40;1.63;;;12.80;99.90;;;;;;15428346;23;20060;-78
2023/03/17 17:40:48;;;;;;;5.22;1.88;;;12.70;99.90;;;;;;15403721;23;20020;-77
2023/03/17 17:46:50;;;;;;;5.07;1.90;;;12.60;99.90;;;;;;15431820;23;20012;-78
2023/03/17 17:52:52;;;;;;;5.40;1.80;;;12.60;99.90;;;;;;15382261;23;20052;-78
2023/03/17 17:58:54;;;;;;;5.00;1.73;;;12.60;99.90;;;;;;15427017;23;20115;-78
2023/03/17 18:04:57;;;;;;;4.82;2.15;;;12.50;99.90;;;;;;15431093;23;20035;-79
2023/03/17 18:10:59;;;;;;;3.70;1.77;;;12.40;99.90;;;;;;15406911;23;20087;-78
2023/03/17 18:17:00;;;;;;;5.00;2.50;;;12.40;99.90;;;;;;15395747;23;20020;-78
2023/03/17 18:23:02;;;;;;;7.85;1.88;;;12.40;99.90;;;;;;15424574;23;20028;-78
2023/03/17 18:29:04;;;;;;;5.80;2.30;;;12.40;99.90;;;;;;15405126;23;20023;-78
2023/03/17 18:35:11;;;;;;;6.15;1.90;;;12.30;99.90;;;;;;15404072;23;20525;-78
2023/03/17 18:41:13;;;;;;;4.88;1.80;;;12.20;99.90;;;;;;15430358;23;20131;-78
2023/03/17 18:47:15;;;;;;;5.38;2.15;;;12.30;99.90;;;;;;15401716;23;20342;-78
2023/03/17 18:53:17;;;;;;;4.97;1.90;;;12.10;99.90;;;;;;15396003;23;20111;-77
2023/03/17 18:59:19;;;;;;;6.78;2.00;;;12.10;99.90;;;;;;15401523;23;20103;-78
2023/03/17 19:05:21;;;;;;;5.40;1.80;;;12.10;99.90;;;;;;15396923;23;20351;-77
2023/03/17 19:11:24;;;;;;;7.03;1.90;;;12.10;99.90;;;;;;15426612;23;20036;-77
2023/03/17 19:17:27;;;;;;;5.17;1.70;;;12.00;99.90;;;;;;15391543;23;20031;-78
2023/03/17 19:23:30;;;;;;;4.57;1.75;;;11.90;99.90;;;;;;15398674;23;20462;-79
2023/03/17 19:29:33;;;;;;;4.22;2.05;;;12.00;99.90;;;;;;15401283;23;20074;-78
2023/03/17 19:35:34;;;;;;;3.90;1.80;;;11.90;99.90;;;;;;15403045;23;20104;-78
2023/03/17 19:41:37;;;;;;;4.43;1.80;;;11.90;99.90;;;;;;15404425;23;20029;-78
2023/03/17 19:47:39;;;;;;;4.55;1.83;;;11.90;99.90;;;;;;15405622;23;20077;-77
2023/03/17 19:53:42;;;;;;;7.40;2.55;;;11.80;99.90;;;;;;15399856;23;20175;-78
2023/03/17 19:59:44;;;;;;;5.75;2.20;;;11.60;99.90;;;;;;15423749;23;20017;-77
2023/03/17 20:05:46;;;;;;;4.47;2.17;;;11.60;99.90;;;;;;15399725;23;20029;-78
2023/03/17 20:11:48;;;;;;;4.88;2.00;;;11.50;99.90;;;;;;15402072;23;20095;-77
2023/03/17 20:17:50;;;;;;;5.85;1.88;;;11.50;99.90;;;;;;15397827;23;20038;-77
2023/03/17 20:23:52;;;;;;;4.32;1.88;;;11.50;99.90;;;;;;15427408;23;20533;-78
2023/03/17 20:29:55;;;;;;;4.57;1.77;;;11.50;99.90;;;;;;15400600;23;20096;-78
2023/03/17 20:35:57;;;;;;;5.80;2.00;;;11.50;99.90;;;;;;15427844;23;20075;-78
2023/03/17 20:42:00;;;;;;;4.40;1.90;;;11.50;99.90;;;;;;15406737;23;20466;-78
2023/03/17 20:48:04;;;;;;;6.22;2.20;;;11.40;99.90;;;;;;15423818;23;20107;-78
2023/03/17 20:54:07;;;;;;;4.82;1.90;;;11.40;99.90;;;;;;15402186;23;20166;-78
2023/03/17 21:00:17;;;;;;;4.78;2.13;;;11.40;99.90;;;;;;15399366;23;20409;-77
2023/03/17 21:06:19;;;;;;;6.05;1.77;;;11.30;99.90;;;;;;15393349;23;20023;-77
2023/03/17 21:12:22;;;;;;;4.57;1.98;;;11.30;99.90;;;;;;15406157;23;20021;-77
2023/03/17 21:18:24;;;;;;;4.38;1.75;;;11.40;99.90;;;;;;15403079;23;20033;-78
2023/03/17 21:24:32;;;;;;;6.10;1.77;;;11.50;99.90;;;;;;15424545;23;20358;-79
2023/03/17 21:30:35;;;;;;;5.45;1.75;;;11.50;99.90;;;;;;15402782;23;20095;-78
2023/03/17 21:36:37;;;;;;;5.63;2.13;;;11.50;99.90;;;;;;15402540;23;20082;-79
2023/03/17 21:42:39;;;;;;;3.50;1.70;;;11.50;99.90;;;;;;15405428;23;20039;-79
2023/03/17 21:48:42;;;;;;;5.70;2.00;;;11.70;99.90;;;;;;15401838;23;20100;-79
2023/03/17 21:54:44;;;;;;;5.30;1.80;;;11.60;99.90;;;;;;15396511;23;20025;-79
2023/03/17 22:00:47;;;;;;;4.35;1.50;;;11.70;99.90;;;;;;15422450;23;20104;-79
2023/03/17 22:06:50;;;;;;;4.73;1.67;;;11.80;99.90;;;;;;15404588;23;20024;-79
2023/03/17 22:12:52;;;;;;;6.38;2.10;;;11.90;99.90;;;;;;15420318;23;20029;-78
2023/03/17 22:18:54;;;;;;;6.40;1.63;;;12.10;99.90;;;;;;15391299;23;20056;-79
2023/03/17 22:24:56;;;;;;;3.20;1.17;;;11.90;99.90;;;;;;15499240;23;20110;-78
2023/03/17 22:30:58;;;;;;;4.07;1.45;;;12.00;99.90;;;;;;15504830;22;20021;-78
2023/03/17 22:37:00;;;;;;;6.10;1.60;;;12.00;99.90;;;;;;15501848;23;20107;-78
2023/03/17 22:43:02;;;;;;;6.13;1.65;;;12.00;99.90;;;;;;15505954;22;20044;-78
2023/03/17 22:49:04;;;;;;;4.65;1.50;;;12.10;99.90;;;;;;15497613;23;20095;-78
2023/03/17 22:55:07;;;;;;;6.03;1.70;;;12.10;99.90;;;;;;15507440;22;20040;-78
2023/03/17 23:01:12;;;;;;;3.92;1.50;;;12.10;99.90;;;;;;15501544;23;20028;-79
2023/03/17 23:07:15;;;;;;;5.65;1.67;;;12.10;99.90;;;;;;15499983;22;20026;-78
2023/03/17 23:13:18;;;;;;;3.47;1.40;;;12.10;99.90;;;;;;15503629;22;20594;-78
2023/03/17 23:19:21;;;;;;;5.17;1.60;;;12.00;99.90;;;;;;15495879;22;20030;-78
2023/03/17 23:25:23;;;;;;;4.00;1.63;;;12.00;99.90;;;;;;15429296;23;20032;-78
2023/03/17 23:31:26;;;;;;;9.77;1.60;;;12.00;99.90;;;;;;15429883;23;20016;-78
2023/03/17 23:37:28;;;;;;;5.67;1.70;;;12.10;99.90;;;;;;15428717;23;20023;-78
2023/03/17 23:43:30;;;;;;;7.80;1.52;;;12.10;99.90;;;;;;15427305;23;20020;-78
2023/03/17 23:49:32;;;;;;;5.25;1.55;;;12.00;99.90;;;;;;15428610;23;20031;-78
2023/03/17 23:55:35;;;;;;;4.28;1.60;;;11.90;99.90;;;;;;15399668;23;20099;-78
